AFR990 LFPG-FAOR
Flight info
| Callsign | AFR990 |
|---|---|
| Flight time | N/A |
| Altitude | 33000 |
| Route | LATRA DCT LAMUT DCT UTUVA DCT TITVA DCT NOQAS DCT OTROT DCT RETNO DCT STP DCT PELOS DCT IPROM DCT KOVAS DCT DEC DCT DOPEL UM858 TBK UG869 EBA UG362 SAMRA UR985 IMN M999 SEB M214 GARIN DCT ILDOR UM214 OKLAP UB540 ETMIT UZ35 ITROL UQ44 AVAGO AVAGO1C |
| Aircraft | B772/H-SDE2E3FGHIJ5LORVWXY/LB1D1 |
Departure
| Time | 2026-04-30 20:45 |
|---|---|
| Airport | Charles de Gaulle International Airport (LFPG) |
Arrival
| Time | N/A |
|---|---|
| Airport | O.R. Tambo International Airport (FAOR) |
| Time | Latitude | Longitude | Altitude | Speed | Heading |
|---|---|---|---|---|---|
| 2026-04-30 19:31 | 49.00265 | 2.59005 | 358 ft | 0 kts | 84° |
| 2026-04-30 20:26 | 49.00264 | 2.58987 | 366 ft | 4 kts | 88° |
| 2026-04-30 20:26 | 49.00262 | 2.58915 | 365 ft | 4 kts | 98° |
| 2026-04-30 20:26 | 49.00268 | 2.58883 | 365 ft | 4 kts | 136° |
| 2026-04-30 20:27 | 49.00305 | 2.58870 | 366 ft | 0 kts | 175° |
| 2026-04-30 20:34 | 49.00273 | 2.58874 | 365 ft | 4 kts | 175° |
| 2026-04-30 20:34 | 49.00223 | 2.58880 | 340 ft | 4 kts | 175° |
| 2026-04-30 20:35 | 49.00199 | 2.58883 | 362 ft | 4 kts | 175° |
| 2026-04-30 20:35 | 49.00174 | 2.58886 | 360 ft | 4 kts | 175° |
| 2026-04-30 20:35 | 49.00121 | 2.58893 | 363 ft | 5 kts | 175° |
| 2026-04-30 20:36 | 49.00085 | 2.58894 | 363 ft | 6 kts | 186° |
| 2026-04-30 20:36 | 49.00051 | 2.58859 | 367 ft | 6 kts | 234° |
| 2026-04-30 20:36 | 49.00034 | 2.58715 | 358 ft | 8 kts | 265° |
| 2026-04-30 20:37 | 49.00031 | 2.58655 | 364 ft | 9 kts | 265° |
| 2026-04-30 20:37 | 49.00026 | 2.58558 | 358 ft | 10 kts | 265° |
| 2026-04-30 20:37 | 49.00020 | 2.58448 | 362 ft | 11 kts | 265° |
| 2026-04-30 20:37 | 49.00013 | 2.58329 | 360 ft | 12 kts | 265° |
| 2026-04-30 20:38 | 49.00006 | 2.58200 | 359 ft | 13 kts | 265° |
| 2026-04-30 20:38 | 48.99999 | 2.58063 | 362 ft | 13 kts | 265° |
| 2026-04-30 20:38 | 48.99992 | 2.57915 | 364 ft | 14 kts | 265° |
| 2026-04-30 20:39 | 48.99975 | 2.57598 | 365 ft | 15 kts | 265° |
| 2026-04-30 20:39 | 48.99966 | 2.57435 | 358 ft | 15 kts | 265° |
| 2026-04-30 20:39 | 48.99957 | 2.57272 | 362 ft | 15 kts | 265° |
| 2026-04-30 20:40 | 48.99943 | 2.57000 | 364 ft | 12 kts | 265° |
| 2026-04-30 20:40 | 48.99936 | 2.56871 | 358 ft | 13 kts | 265° |
| 2026-04-30 20:40 | 48.99929 | 2.56735 | 366 ft | 13 kts | 265° |
| 2026-04-30 20:41 | 48.99913 | 2.56432 | 364 ft | 15 kts | 265° |
| 2026-04-30 20:41 | 48.99904 | 2.56269 | 362 ft | 16 kts | 265° |
| 2026-04-30 20:41 | 48.99895 | 2.56099 | 358 ft | 13 kts | 265° |
| 2026-04-30 20:41 | 48.99890 | 2.55974 | 358 ft | 11 kts | 272° |
| 2026-04-30 20:42 | 48.99899 | 2.55867 | 360 ft | 9 kts | 270° |
| 2026-04-30 20:42 | 48.99875 | 2.55804 | 367 ft | 7 kts | 211° |
| 2026-04-30 20:42 | 48.99773 | 2.55804 | 364 ft | 8 kts | 176° |
| 2026-04-30 20:43 | 48.99710 | 2.55812 | 362 ft | 10 kts | 175° |
| 2026-04-30 20:43 | 48.99647 | 2.55819 | 361 ft | 7 kts | 175° |
| 2026-04-30 20:43 | 48.99621 | 2.55823 | 360 ft | 3 kts | 171° |
| 2026-04-30 20:44 | 48.99603 | 2.55880 | 363 ft | 4 kts | 86° |
| 2026-04-30 20:44 | 48.99606 | 2.55938 | 360 ft | 13 kts | 86° |
| 2026-04-30 20:44 | 48.99681 | 2.57343 | 356 ft | 130 kts | 85° |
| 2026-04-30 20:45 | 48.99894 | 2.60829 | 1096 ft | 175 kts | 86° |
| 2026-04-30 20:45 | 48.99984 | 2.62611 | 2058 ft | 161 kts | 90° |
| 2026-04-30 20:45 | 49.00068 | 2.64349 | 2550 ft | 171 kts | 90° |
| 2026-04-30 20:46 | 49.00358 | 2.70124 | 3612 ft | 201 kts | 89° |
| 2026-04-30 20:46 | 49.00468 | 2.72337 | 3765 ft | 218 kts | 89° |
| 2026-04-30 20:47 | 49.00721 | 2.77336 | 4118 ft | 253 kts | 90° |
| 2026-04-30 20:47 | 49.00614 | 2.80005 | 4404 ft | 261 kts | 101° |
| 2026-04-30 20:48 | 48.99951 | 2.85581 | 5308 ft | 274 kts | 102° |
| 2026-04-30 20:48 | 48.99630 | 2.88450 | 5908 ft | 274 kts | 101° |
| 2026-04-30 20:48 | 48.99323 | 2.91314 | 6493 ft | 274 kts | 100° |
| 2026-04-30 20:48 | 48.99019 | 2.94192 | 7018 ft | 276 kts | 100° |
| 2026-04-30 20:49 | 48.98651 | 2.97048 | 7467 ft | 274 kts | 112° |
| 2026-04-30 20:49 | 48.97571 | 2.99424 | 7784 ft | 277 kts | 142° |
| 2026-04-30 20:49 | 48.95876 | 3.00767 | 8272 ft | 277 kts | 167° |
| 2026-04-30 20:50 | 48.92110 | 3.00005 | 9045 ft | 283 kts | 200° |
| 2026-04-30 20:50 | 48.90286 | 2.98936 | 9456 ft | 286 kts | 200° |
| 2026-04-30 20:50 | 48.88436 | 2.97828 | 9958 ft | 286 kts | 200° |
| 2026-04-30 20:50 | 48.86570 | 2.96709 | 10349 ft | 290 kts | 200° |
| 2026-04-30 20:51 | 48.84644 | 2.95562 | 10460 ft | 305 kts | 200° |
| 2026-04-30 20:51 | 48.80501 | 2.93117 | 10687 ft | 335 kts | 199° |
| 2026-04-30 20:51 | 48.78269 | 2.91810 | 10869 ft | 350 kts | 199° |
| 2026-04-30 20:52 | 48.75966 | 2.90464 | 11267 ft | 359 kts | 199° |
| 2026-04-30 20:52 | 48.73610 | 2.89092 | 11828 ft | 365 kts | 199° |
| 2026-04-30 20:52 | 48.68830 | 2.86314 | 13235 ft | 371 kts | 199° |
| 2026-04-30 20:53 | 48.66403 | 2.84908 | 13921 ft | 375 kts | 199° |
| 2026-04-30 20:53 | 48.63953 | 2.83492 | 14532 ft | 379 kts | 199° |
| 2026-04-30 20:53 | 48.61478 | 2.82062 | 15135 ft | 382 kts | 198° |
| 2026-04-30 20:54 | 48.56506 | 2.79194 | 16328 ft | 388 kts | 198° |
| 2026-04-30 20:54 | 48.53972 | 2.77735 | 16899 ft | 391 kts | 198° |
| 2026-04-30 20:54 | 48.51412 | 2.76263 | 17455 ft | 395 kts | 198° |
| 2026-04-30 20:55 | 48.46236 | 2.73292 | 18541 ft | 401 kts | 198° |
| 2026-04-30 20:55 | 48.43611 | 2.71787 | 19014 ft | 404 kts | 198° |
| 2026-04-30 20:55 | 48.40978 | 2.70279 | 19516 ft | 406 kts | 198° |
| 2026-04-30 20:56 | 48.35669 | 2.67244 | 20463 ft | 410 kts | 198° |
| 2026-04-30 20:56 | 48.32996 | 2.65718 | 20917 ft | 412 kts | 198° |
| 2026-04-30 20:56 | 48.27597 | 2.62642 | 21805 ft | 417 kts | 198° |
| 2026-04-30 20:57 | 48.24874 | 2.61094 | 22242 ft | 419 kts | 198° |
| 2026-04-30 20:57 | 48.22168 | 2.59556 | 22684 ft | 422 kts | 198° |
| 2026-04-30 20:57 | 48.19417 | 2.57994 | 23119 ft | 424 kts | 198° |
| 2026-04-30 20:58 | 48.13864 | 2.54847 | 23930 ft | 429 kts | 198° |
| 2026-04-30 20:58 | 48.11047 | 2.53380 | 24206 ft | 428 kts | 191° |
| 2026-04-30 20:58 | 48.08100 | 2.52820 | 24457 ft | 428 kts | 177° |
| 2026-04-30 20:58 | 48.05145 | 2.53225 | 24807 ft | 426 kts | 167° |
| 2026-04-30 20:59 | 47.99505 | 2.55889 | 25392 ft | 427 kts | 159° |
| 2026-04-30 20:59 | 47.96683 | 2.57332 | 25719 ft | 429 kts | 159° |
| 2026-04-30 21:00 | 47.91043 | 2.60177 | 26439 ft | 433 kts | 160° |
| 2026-04-30 21:00 | 47.85297 | 2.63021 | 27109 ft | 437 kts | 160° |
| 2026-04-30 21:01 | 47.79490 | 2.65865 | 27738 ft | 442 kts | 160° |
| 2026-04-30 21:01 | 47.76560 | 2.67296 | 28028 ft | 444 kts | 160° |
| 2026-04-30 21:01 | 47.70649 | 2.70176 | 28589 ft | 450 kts | 160° |
| 2026-04-30 21:02 | 47.67665 | 2.71628 | 28889 ft | 452 kts | 160° |
| 2026-04-30 21:02 | 47.64672 | 2.73082 | 29186 ft | 454 kts | 160° |
| 2026-04-30 21:02 | 47.61666 | 2.74541 | 29475 ft | 456 kts | 160° |
| 2026-04-30 21:02 | 47.58640 | 2.76009 | 29743 ft | 458 kts | 160° |
| 2026-04-30 21:03 | 47.55602 | 2.77480 | 29994 ft | 460 kts | 160° |
| 2026-04-30 21:03 | 47.52582 | 2.78941 | 30241 ft | 462 kts | 160° |
| 2026-04-30 21:03 | 47.49514 | 2.80423 | 30431 ft | 465 kts | 161° |
| 2026-04-30 21:03 | 47.46429 | 2.81912 | 30627 ft | 466 kts | 161° |
| 2026-04-30 21:04 | 47.43340 | 2.83401 | 30849 ft | 467 kts | 161° |
| 2026-04-30 21:04 | 47.40246 | 2.84890 | 31124 ft | 467 kts | 161° |
| 2026-04-30 21:04 | 47.34073 | 2.87855 | 31731 ft | 465 kts | 161° |
| 2026-04-30 21:05 | 47.31026 | 2.89317 | 31982 ft | 466 kts | 161° |
| 2026-04-30 21:05 | 47.27945 | 2.90793 | 32240 ft | 466 kts | 161° |
| 2026-04-30 21:05 | 47.24867 | 2.92265 | 32514 ft | 465 kts | 161° |
| 2026-04-30 21:05 | 47.21789 | 2.93737 | 32792 ft | 465 kts | 161° |
| 2026-04-30 21:06 | 47.18711 | 2.95206 | 33052 ft | 465 kts | 161° |
| 2026-04-30 21:06 | 47.15621 | 2.96680 | 33113 ft | 468 kts | 161° |
| 2026-04-30 21:06 | 47.09401 | 2.99595 | 33144 ft | 468 kts | 162° |
| 2026-04-30 21:07 | 47.03162 | 3.02169 | 33161 ft | 464 kts | 164° |
| 2026-04-30 21:07 | 46.96941 | 3.04650 | 33166 ft | 463 kts | 163° |
| 2026-04-30 21:08 | 46.90727 | 3.07163 | 33159 ft | 463 kts | 163° |
| 2026-04-30 21:08 | 46.84562 | 3.09679 | 33171 ft | 463 kts | 163° |
| 2026-04-30 21:09 | 46.78348 | 3.12219 | 33217 ft | 467 kts | 163° |
| 2026-04-30 21:09 | 46.75213 | 3.13498 | 33391 ft | 468 kts | 163° |
| 2026-04-30 21:09 | 46.72077 | 3.14774 | 33672 ft | 467 kts | 163° |
| 2026-04-30 21:10 | 46.68959 | 3.16042 | 34004 ft | 464 kts | 163° |
| 2026-04-30 21:10 | 46.65847 | 3.17305 | 34297 ft | 463 kts | 164° |
| 2026-04-30 21:10 | 46.62740 | 3.18565 | 34474 ft | 463 kts | 164° |
| 2026-04-30 21:10 | 46.59630 | 3.19825 | 34626 ft | 464 kts | 164° |
| 2026-04-30 21:11 | 46.56517 | 3.21084 | 34803 ft | 465 kts | 164° |
| 2026-04-30 21:11 | 46.53396 | 3.22345 | 34995 ft | 465 kts | 164° |
| 2026-04-30 21:11 | 46.47135 | 3.24870 | 35121 ft | 468 kts | 164° |
| 2026-04-30 21:12 | 46.40903 | 3.27378 | 35169 ft | 467 kts | 164° |
| 2026-04-30 21:12 | 46.34658 | 3.29884 | 35174 ft | 464 kts | 164° |
| 2026-04-30 21:13 | 46.28432 | 3.32378 | 35177 ft | 463 kts | 164° |
| 2026-04-30 21:13 | 46.22222 | 3.34859 | 35180 ft | 462 kts | 164° |
| 2026-04-30 21:14 | 46.16057 | 3.37316 | 35181 ft | 463 kts | 164° |
| 2026-04-30 21:14 | 46.09836 | 3.39790 | 35184 ft | 464 kts | 165° |
| 2026-04-30 21:15 | 46.03598 | 3.42265 | 35187 ft | 465 kts | 165° |
| 2026-04-30 21:15 | 45.97347 | 3.44740 | 35188 ft | 467 kts | 165° |
| 2026-04-30 21:16 | 45.91077 | 3.47217 | 35191 ft | 468 kts | 165° |
| 2026-04-30 21:16 | 45.84996 | 3.50600 | 35189 ft | 470 kts | 154° |
| 2026-04-30 21:17 | 45.79392 | 3.55478 | 35201 ft | 471 kts | 147° |
| 2026-04-30 21:17 | 45.73933 | 3.60711 | 35194 ft | 473 kts | 147° |
| 2026-04-30 21:18 | 45.68468 | 3.65896 | 35203 ft | 474 kts | 148° |
| 2026-04-30 21:18 | 45.62945 | 3.71082 | 35206 ft | 476 kts | 148° |
| 2026-04-30 21:19 | 45.57395 | 3.76271 | 35215 ft | 478 kts | 148° |
| 2026-04-30 21:19 | 45.51818 | 3.81476 | 35212 ft | 479 kts | 148° |
| 2026-04-30 21:20 | 45.46220 | 3.86692 | 35215 ft | 481 kts | 148° |
| 2026-04-30 21:20 | 45.40612 | 3.91907 | 35215 ft | 482 kts | 147° |
| 2026-04-30 21:21 | 45.35512 | 3.98035 | 35223 ft | 485 kts | 135° |
| 2026-04-30 21:22 | 45.29326 | 4.09440 | 35227 ft | 487 kts | 126° |
| 2026-04-30 21:23 | 45.21404 | 4.25067 | 35219 ft | 488 kts | 127° |
| 2026-04-30 21:23 | 45.16081 | 4.35469 | 35220 ft | 489 kts | 127° |
| 2026-04-30 21:24 | 45.12078 | 4.43278 | 35226 ft | 490 kts | 127° |
| 2026-04-30 21:24 | 45.07745 | 4.50724 | 35234 ft | 489 kts | 132° |
| 2026-04-30 21:25 | 45.01042 | 4.61540 | 35224 ft | 490 kts | 132° |
| 2026-04-30 21:26 | 44.94312 | 4.72444 | 35219 ft | 491 kts | 132° |
| 2026-04-30 21:27 | 44.87571 | 4.83370 | 35220 ft | 492 kts | 132° |
| 2026-04-30 21:27 | 44.83063 | 4.90650 | 35222 ft | 493 kts | 132° |
| 2026-04-30 21:28 | 44.76310 | 5.01518 | 35223 ft | 494 kts | 132° |
| 2026-04-30 21:29 | 44.69504 | 5.12429 | 35227 ft | 495 kts | 132° |
| 2026-04-30 21:30 | 44.58090 | 5.30633 | 35232 ft | 497 kts | 132° |
| 2026-04-30 21:31 | 44.46609 | 5.48829 | 35232 ft | 499 kts | 133° |
| 2026-04-30 21:32 | 44.39634 | 5.59660 | 35234 ft | 499 kts | 137° |
| 2026-04-30 21:32 | 44.34298 | 5.65726 | 35234 ft | 496 kts | 149° |
| 2026-04-30 21:33 | 44.25440 | 5.73249 | 35225 ft | 496 kts | 150° |
| 2026-04-30 21:34 | 44.19531 | 5.78247 | 35230 ft | 498 kts | 150° |
| 2026-04-30 21:34 | 44.10695 | 5.85783 | 35232 ft | 499 kts | 150° |
| 2026-04-30 21:35 | 44.04765 | 5.90839 | 35230 ft | 500 kts | 150° |
| 2026-04-30 21:35 | 43.98810 | 5.95902 | 35234 ft | 501 kts | 150° |
| 2026-04-30 21:36 | 43.92851 | 6.00953 | 35228 ft | 502 kts | 150° |
| 2026-04-30 21:37 | 43.80892 | 6.11055 | 35227 ft | 503 kts | 151° |
| 2026-04-30 21:37 | 43.74948 | 6.16058 | 35226 ft | 503 kts | 151° |
| 2026-04-30 21:38 | 43.68968 | 6.21078 | 35231 ft | 503 kts | 151° |
| 2026-04-30 21:38 | 43.62981 | 6.26094 | 35216 ft | 503 kts | 151° |
| 2026-04-30 21:39 | 43.56992 | 6.31100 | 35214 ft | 503 kts | 151° |
| 2026-04-30 21:39 | 43.51001 | 6.36096 | 35211 ft | 503 kts | 151° |
| 2026-04-30 21:40 | 43.45005 | 6.41083 | 35209 ft | 503 kts | 151° |
| 2026-04-30 21:40 | 43.39011 | 6.46058 | 35212 ft | 503 kts | 152° |
| 2026-04-30 21:41 | 43.33015 | 6.51023 | 35209 ft | 504 kts | 152° |
| 2026-04-30 21:41 | 43.27005 | 6.55990 | 35207 ft | 504 kts | 152° |
| 2026-04-30 21:42 | 43.21018 | 6.60919 | 35210 ft | 505 kts | 152° |
| 2026-04-30 21:42 | 43.14935 | 6.65742 | 35203 ft | 505 kts | 153° |
| 2026-04-30 21:43 | 43.08816 | 6.70494 | 35203 ft | 506 kts | 153° |
| 2026-04-30 21:43 | 43.02676 | 6.75269 | 35201 ft | 507 kts | 153° |
| 2026-04-30 21:44 | 42.96544 | 6.80051 | 35197 ft | 507 kts | 153° |
| 2026-04-30 21:44 | 42.90409 | 6.84831 | 35200 ft | 508 kts | 153° |
| 2026-04-30 21:45 | 42.84264 | 6.89608 | 35198 ft | 509 kts | 153° |
| 2026-04-30 21:45 | 42.78143 | 6.94353 | 35198 ft | 509 kts | 154° |
| 2026-04-30 21:46 | 42.71980 | 6.99119 | 35194 ft | 510 kts | 154° |
| 2026-04-30 21:46 | 42.65803 | 7.03885 | 35191 ft | 510 kts | 154° |
| 2026-04-30 21:47 | 42.59616 | 7.08649 | 35186 ft | 511 kts | 154° |
| 2026-04-30 21:47 | 42.53461 | 7.13376 | 35187 ft | 511 kts | 154° |
| 2026-04-30 21:48 | 42.47272 | 7.18119 | 35181 ft | 511 kts | 154° |
| 2026-04-30 21:48 | 42.41072 | 7.22859 | 35179 ft | 511 kts | 154° |
| 2026-04-30 21:49 | 42.34872 | 7.27589 | 35177 ft | 512 kts | 154° |
| 2026-04-30 21:49 | 42.28665 | 7.32313 | 35174 ft | 512 kts | 154° |
| 2026-04-30 21:50 | 42.22448 | 7.37034 | 35173 ft | 512 kts | 155° |
| 2026-04-30 21:50 | 42.16229 | 7.41745 | 35173 ft | 513 kts | 155° |
| 2026-04-30 21:51 | 42.09995 | 7.46457 | 35165 ft | 514 kts | 155° |
| 2026-04-30 21:51 | 42.03757 | 7.51162 | 35163 ft | 514 kts | 155° |
| 2026-04-30 21:52 | 41.97510 | 7.55862 | 35165 ft | 515 kts | 155° |
| 2026-04-30 21:52 | 41.91291 | 7.60532 | 35163 ft | 516 kts | 155° |
| 2026-04-30 21:53 | 41.85016 | 7.65232 | 35166 ft | 517 kts | 155° |
| 2026-04-30 21:53 | 41.78722 | 7.69935 | 35166 ft | 518 kts | 155° |
| 2026-04-30 21:54 | 41.72418 | 7.74636 | 35162 ft | 519 kts | 155° |
| 2026-04-30 21:54 | 41.66101 | 7.79337 | 35158 ft | 519 kts | 155° |
| 2026-04-30 21:55 | 41.59775 | 7.84033 | 35167 ft | 520 kts | 156° |
| 2026-04-30 21:55 | 41.53494 | 7.88685 | 35165 ft | 520 kts | 156° |
| 2026-04-30 21:56 | 41.47140 | 7.93381 | 35155 ft | 520 kts | 156° |
| 2026-04-30 21:56 | 41.40806 | 7.98051 | 35160 ft | 519 kts | 156° |